Flight Track Log - Related Links

Times and Time Zones

All times are in EDT time to prevent confusion due to time zone crossing. See the ASQ5738 flight status page for this flight to view local times or setup timezone preferences in your user account.

Time Position Orientation Groundspeed Altitude Reporting Facility
EDT Latitude Longitude Course Direction KTS MPH feet Rate Location/Type
Sat 05:46:42 PM 38.9500 -77.5000 84° East 169 194 1,200  Level Potomac TRACON
Sat 05:47:48 PM 39.0000 -77.5667 314° West 243 280 2,900 1,905 Climbing Potomac TRACON
Sat 05:48:48 PM 39.0500 -77.5833 345° North 302 348 5,200 2,429 Climbing Potomac TRACON
Sat 05:49:00 PM 38.9696 -77.1128 84° East  Level FlightAware Approximate
Sat 05:49:54 PM 39.1000 -77.5000 52° Northeast 290 334 8,000  Level Potomac TRACON
Sat 05:50:00 PM 38.9785 -76.9967 84° East  Level FlightAware Approximate
Sat 05:50:54 PM 39.1500 -77.4000 57° Northeast 313 360 9,900  Level Potomac TRACON
Sat 05:51:00 PM 38.9874 -76.8805 84° East  Level FlightAware Approximate
Sat 05:51:48 PM 39.1667 -77.3000 78° East 369 425 10,000  Level Potomac TRACON
Sat 05:52:00 PM 38.9964 -76.7644 84° East  Level FlightAware Approximate
Sat 05:53:23 PM 39.1017 -77.1136 114° Southeast 369 425 12,200  Level Washington Center
Sat 05:54:23 PM 39.0906 -77.0064 98° East 374 430 13,900 1,983 Climbing Washington Center
Sat 05:55:24 PM 39.0756 -76.8456 97° East 374 430 16,200 1,869 Climbing Washington Center
Sat 05:56:25 PM 39.0603 -76.7089 98° East 374 430 17,700 1,729 Climbing Washington Center
Sat 05:57:22 PM 39.0489 -76.5753 96° East 374 430 19,600 1,627 Climbing Washington Center
Sat 05:58:23 PM 39.0314 -76.4386 99° East 374 430 20,900 984 Climbing Washington Center
Sat 05:59:24 PM 39.0300 -76.2944 91° East 388 447 21,600 756 Climbing Washington Center
Sat 06:00:22 PM 39.0392 -76.1556 85° East 411 473 22,400 706 Climbing Washington Center
Sat 06:01:23 PM 39.0481 -76.0033 86° East 423 487 23,000 298 Climbing Washington Center
Sat 06:02:23 PM 39.0547 -75.8456 87° East 428 493 23,000  Level Washington Center
Sat 06:03:23 PM 39.0925 -75.6933 72° East 441 507 23,000  Level Washington Center
Sat 06:04:24 PM 39.1883 -75.5675 45° Northeast 441 507 23,000  Level Washington Center
Sat 06:05:22 PM 39.2989 -75.4575 38° Northeast 466 536 23,000  Level Washington Center
Sat 06:06:23 PM 39.4153 -75.3525 35° Northeast 484 557 23,000  Level Washington Center
Sat 06:07:22 PM 39.5297 -75.2525 34° Northeast 496 571 23,000  Level Washington Center
Sat 06:08:23 PM 39.6564 -75.1361 35° Northeast 501 577 23,000 -600 Level Washington Center
Sat 06:09:22 PM 39.7622 -75.0436 34° Northeast 513 590 21,800 -2,118 Descending Washington Center
Sat 06:10:22 PM 39.8825 -74.9372 34° Northeast 494 568 18,800 -3,174 Descending Washington Center
Sat 06:11:23 PM 39.9756 -74.8281 42° Northeast 467 537 15,400 -3,656 Descending Washington Center
Sat 06:12:30 PM 40.0667 -74.7000 47° Northeast 408 470 11,000 -2,551 Descending New York TRACON
Sat 06:13:30 PM 40.1333 -74.6000 49° Northeast 392 451 10,000 -500 Descending New York TRACON
Sat 06:14:30 PM 40.2167 -74.4833 47° Northeast 397 457 10,000  Level New York TRACON
Sat 06:15:30 PM 40.2833 -74.3833 49° Northeast 400 460 10,000  Level New York TRACON
Sat 06:16:30 PM 40.3667 -74.2833 42° Northeast 395 455 10,000 -400 Level New York TRACON
Sat 06:17:30 PM 40.4500 -74.2333 25° Northeast 319 367 9,200 -1,050 Descending New York TRACON
Sat 06:18:30 PM 40.5333 -74.1833 25° Northeast 306 352 7,900 -1,148 Descending New York TRACON
Sat 06:19:25 PM 40.6000 -74.1333 30° Northeast 305 351 7,000 -1,105 Descending New York TRACON
Sat 06:20:24 PM 40.6667 -74.0833 30° Northeast 297 342 5,800 -1,261 Descending New York TRACON
Sat 06:21:24 PM 40.7333 -74.0167 37° Northeast 295 339 4,500 -1,140 Descending New York TRACON
Sat 06:22:25 PM 40.8000 -73.9500 37° Northeast 284 327 3,500 -744 Descending New York TRACON
Sat 06:23:25 PM 40.8667 -73.9000 30° Northeast 265 305 3,000 -252 Descending New York TRACON
Sat 06:24:24 PM 40.9167 -73.8667 27° Northeast 197 227 3,000 -200 Level New York TRACON
Sat 06:25:25 PM 40.9500 -73.8167 49° Northeast 200 230 2,600 -476 Descending New York TRACON
Sat 06:26:30 PM 40.9167 -73.7833 143° Southeast 158 182 2,000 -554 Descending New York TRACON

Login

Don't have an account? Register now (free) for customized features, flight alerts, and more!